Time;durP1;ratioP1;P1;durP2;ratioP2;P2;SDS_P1;SDS_P2;PMS_P1;PMS_P2;Temp;Humidity;BMP_temperature;BMP_pressure;BME280_temperature;BME280_humidity;BME280_pressure;Samples;Min_cycle;Max_cycle;Signal;HPM_P1;HPM_P2
2022/09/23 00:00:44;;;;;;;12.52;11.38;;;10.90;99.90;;;;;;5065062;28;20016;-76
2022/09/23 00:03:19;;;;;;;13.43;11.57;;;10.80;99.90;;;;;;5059793;28;20041;-75
2022/09/23 00:06:26;;;;;;;12.75;11.30;;;10.80;99.90;;;;;;5061733;28;20207;-76
2022/09/23 00:08:53;;;;;;;13.48;12.10;;;10.80;99.90;;;;;;5077103;28;20028;-76
2022/09/23 00:11:26;;;;;;;13.30;11.98;;;10.70;99.90;;;;;;5041662;28;20064;-76
2022/09/23 00:17:04;;;;;;;12.90;11.55;;;10.70;99.90;;;;;;5058460;28;20100;-77
2022/09/23 00:19:30;;;;;;;13.07;11.80;;;10.70;99.90;;;;;;5058067;28;20039;-77
2022/09/23 00:21:55;;;;;;;14.60;12.93;;;10.70;99.90;;;;;;5042453;28;20285;-76
2022/09/23 00:24:22;;;;;;;14.18;12.55;;;10.60;99.90;;;;;;5056379;28;20525;-76
2022/09/23 00:26:48;;;;;;;14.00;12.45;;;10.70;99.90;;;;;;5070954;28;20020;-76
2022/09/23 00:29:14;;;;;;;13.80;12.43;;;10.70;99.90;;;;;;5041841;28;20099;-77
2022/09/23 00:31:40;;;;;;;13.20;11.80;;;10.80;99.90;;;;;;5059825;28;20219;-76
2022/09/23 00:34:09;;;;;;;15.18;13.07;;;10.70;99.90;;;;;;5078962;28;20082;-76
2022/09/23 00:36:35;;;;;;;13.80;12.40;;;10.60;99.90;;;;;;5080211;28;20052;-76
2022/09/23 00:39:02;;;;;;;14.18;12.07;;;10.60;99.90;;;;;;5070349;28;20331;-76
2022/09/23 00:41:29;;;;;;;13.25;11.93;;;10.50;99.90;;;;;;5082057;28;20037;-76
2022/09/23 00:43:59;;;;;;;14.07;11.48;;;10.50;99.90;;;;;;5065266;28;20234;-76
2022/09/23 00:46:29;;;;;;;13.75;12.35;;;10.50;99.90;;;;;;5077529;28;20052;-75
2022/09/23 00:49:00;;;;;;;14.05;12.75;;;10.60;99.90;;;;;;5062337;28;20029;-75
2022/09/23 00:51:33;;;;;;;13.23;12.02;;;10.60;99.90;;;;;;5080030;28;20044;-75
2022/09/23 00:54:07;;;;;;;14.00;11.70;;;10.60;99.90;;;;;;5059742;28;20104;-76
2022/09/23 00:56:37;;;;;;;13.17;11.73;;;10.60;99.90;;;;;;5071142;28;20025;-75
2022/09/23 00:59:03;;;;;;;12.55;11.35;;;10.60;99.90;;;;;;5075768;28;20040;-74
2022/09/23 01:01:29;;;;;;;13.23;11.93;;;10.60;99.90;;;;;;5078119;28;20032;-75
2022/09/23 01:03:56;;;;;;;14.13;11.45;;;10.60;99.90;;;;;;5063191;28;20239;-75
2022/09/23 01:06:25;;;;;;;13.75;12.15;;;10.70;99.90;;;;;;5079923;28;20036;-75
2022/09/23 01:08:57;;;;;;;12.98;11.68;;;10.60;99.90;;;;;;5080933;28;20059;-75
2022/09/23 01:11:47;;;;;;;12.60;11.35;;;10.70;99.90;;;;;;5061049;28;20043;-75
2022/09/23 01:14:53;;;;;;;13.52;12.05;;;11.50;99.90;;;;;;5054816;28;20044;-75
2022/09/23 01:17:34;;;;;;;13.82;12.43;;;12.10;99.90;;;;;;5071145;28;20059;-75
2022/09/23 01:20:06;;;;;;;15.32;13.02;;;10.70;99.90;;;;;;5061585;28;20099;-76
2022/09/23 01:23:09;;;;;;;12.93;11.63;;;10.70;99.90;;;;;;5074393;28;20057;-75
2022/09/23 01:25:52;;;;;;;14.27;12.77;;;10.70;99.90;;;;;;5049049;28;20075;-77
2022/09/23 01:28:56;;;;;;;13.25;11.52;;;10.80;99.90;;;;;;5058697;28;20067;-75
2022/09/23 01:31:45;;;;;;;13.45;12.00;;;10.80;99.90;;;;;;5076886;28;20356;-76
2022/09/23 01:34:23;;;;;;;12.93;11.63;;;10.70;99.90;;;;;;5061479;28;20040;-74
2022/09/23 01:37:10;;;;;;;;;;;10.70;99.90;;;;;;5079336;28;20056;-75
2022/09/23 01:39:54;;;;;;;14.80;12.02;;;10.80;99.90;;;;;;5075304;28;19912;-77
2022/09/23 01:42:29;;;;;;;13.48;12.07;;;10.70;99.90;;;;;;5063850;28;20059;-76
2022/09/23 01:44:59;;;;;;;13.63;12.32;;;10.70;99.90;;;;;;5071189;28;20032;-77
2022/09/23 01:48:19;;;;;;;;;;;;;;;;;;;;;
2022/09/23 01:51:32;;;;;;;13.75;11.95;;;10.60;99.90;;;;;;5064611;28;20231;-76
2022/09/23 01:54:14;;;;;;;13.35;11.95;;;11.60;99.90;;;;;;5074204;28;20043;-76
2022/09/23 01:56:57;;;;;;;13.63;11.95;;;10.70;99.90;;;;;;5052487;28;20075;-77
2022/09/23 01:59:32;;;;;;;15.95;13.00;;;10.70;99.90;;;;;;5058437;28;20079;-76
2022/09/23 02:02:06;;;;;;;14.38;11.82;;;10.70;99.90;;;;;;5056500;28;20025;-76
2022/09/23 02:04:38;;;;;;;12.63;11.38;;;10.60;99.90;;;;;;5076225;28;20032;-76
2022/09/23 02:07:28;;;;;;;13.18;11.88;;;10.70;99.90;;;;;;5081145;28;20349;-76
2022/09/23 02:10:11;;;;;;;12.63;11.45;;;10.70;99.90;;;;;;5077849;28;20043;-76
2022/09/23 02:12:39;;;;;;;14.00;12.48;;;10.60;99.90;;;;;;5078844;28;20214;-75
2022/09/23 02:15:10;;;;;;;13.95;11.82;;;10.60;99.90;;;;;;5073330;28;20047;-74
2022/09/23 02:17:59;;;;;;;13.05;11.90;;;10.60;99.90;;;;;;5060456;28;20028;-74
2022/09/23 02:20:29;;;;;;;12.57;11.27;;;10.60;99.90;;;;;;5078099;28;20075;-75
2022/09/23 02:23:15;;;;;;;12.90;11.52;;;10.60;99.90;;;;;;5075220;28;20020;-75
2022/09/23 02:25:57;;;;;;;12.32;11.13;;;10.60;99.90;;;;;;5058117;28;20035;-75
2022/09/23 02:28:31;;;;;;;12.65;11.45;;;10.60;99.90;;;;;;5055791;28;20031;-76
2022/09/23 02:31:33;;;;;;;12.32;11.15;;;10.60;99.90;;;;;;5078917;28;20028;-77
2022/09/23 02:34:17;;;;;;;12.85;10.60;;;10.50;99.90;;;;;;5068202;28;20024;-77
2022/09/23 02:37:10;;;;;;;12.65;11.35;;;10.50;99.90;;;;;;5066756;28;20382;-77
2022/09/23 02:39:57;;;;;;;12.27;11.13;;;10.40;99.90;;;;;;5059423;28;20021;-75
2022/09/23 02:42:32;;;;;;;12.30;10.90;;;10.40;99.90;;;;;;5045895;28;20034;-77
2022/09/23 02:44:57;;;;;;;12.32;11.23;;;10.30;99.90;;;;;;5059697;28;20036;-75
2022/09/23 02:47:28;;;;;;;13.85;12.02;;;10.20;99.90;;;;;;5055379;28;20044;-75
2022/09/23 02:49:55;;;;;;;14.57;13.15;;;10.20;99.90;;;;;;5057565;28;20044;-74
2022/09/23 02:52:21;;;;;;;13.55;12.07;;;10.10;99.90;;;;;;5078665;28;20250;-75
2022/09/23 02:54:46;;;;;;;13.73;12.10;;;10.20;99.90;;;;;;5059500;28;20032;-75
2022/09/23 02:57:13;;;;;;;13.32;11.95;;;10.20;99.90;;;;;;5053951;28;20025;-74
2022/09/23 02:59:40;;;;;;;12.95;11.65;;;10.10;99.90;;;;;;5079131;28;20047;-75
2022/09/23 03:02:37;;;;;;;13.95;12.15;;;10.20;99.90;;;;;;5061427;28;20200;-75
2022/09/23 03:05:06;;;;;;;15.10;11.85;;;10.20;99.90;;;;;;5004227;28;20140;-75
2022/09/23 03:07:47;;;;;;;13.10;11.80;;;10.20;99.90;;;;;;5059640;28;20210;-74
2022/09/23 03:10:31;;;;;;;13.40;12.02;;;10.20;99.90;;;;;;5051964;28;20032;-75
2022/09/23 03:13:27;;;;;;;13.50;12.15;;;10.10;99.90;;;;;;5057698;28;20218;-74
2022/09/23 03:16:21;;;;;;;13.23;11.82;;;10.10;99.90;;;;;;5041610;28;20029;-75
2022/09/23 03:19:16;;;;;;;13.80;12.18;;;10.10;99.90;;;;;;5060541;28;20330;-75
2022/09/23 03:22:04;;;;;;;15.35;12.35;;;10.00;99.90;;;;;;5050720;28;20028;-74
2022/09/23 03:27:49;;;;;;;12.80;11.60;;;9.20;99.90;;;;;;5006387;28;20324;-74
2022/09/23 03:30:16;;;;;;;16.38;12.38;;;9.90;99.90;;;;;;5021520;28;20044;-74
2022/09/23 03:32:45;;;;;;;14.32;12.35;;;9.80;99.90;;;;;;5057863;28;20044;-74
2022/09/23 03:35:13;;;;;;;14.75;13.25;;;9.80;99.90;;;;;;5079863;28;20040;-75
2022/09/23 03:37:46;;;;;;;14.70;13.20;;;9.80;99.90;;;;;;5048952;28;20057;-75
2022/09/23 03:40:28;;;;;;;;;;;;;;;;;;;;;
2022/09/23 03:42:59;;;;;;;14.27;11.95;;;9.80;99.90;;;;;;5061276;28;20341;-75
2022/09/23 03:45:31;;;;;;;14.93;12.40;;;9.80;99.90;;;;;;5057910;28;20037;-74
2022/09/23 03:47:57;;;;;;;13.02;11.65;;;9.80;99.90;;;;;;5060392;28;20057;-75
2022/09/23 03:50:23;;;;;;;13.27;11.88;;;9.70;99.90;;;;;;5059294;28;20059;-75
2022/09/23 03:52:49;;;;;;;13.98;12.57;;;9.70;99.90;;;;;;5033570;28;20315;-76
2022/09/23 03:55:17;;;;;;;13.77;12.48;;;9.60;99.90;;;;;;5079141;28;20044;-76
2022/09/23 03:57:45;;;;;;;14.10;12.80;;;9.60;99.90;;;;;;5052506;28;20223;-75
2022/09/23 04:00:14;;;;;;;13.90;12.60;;;9.60;99.90;;;;;;5058505;28;20044;-76
2022/09/23 04:02:52;;;;;;;14.75;13.10;;;9.60;99.90;;;;;;5052941;28;20311;-75
2022/09/23 04:05:25;;;;;;;13.73;12.43;;;9.50;99.90;;;;;;5065773;28;20073;-75
2022/09/23 04:07:51;;;;;;;14.65;13.00;;;9.50;99.90;;;;;;5055573;28;20031;-75
2022/09/23 04:10:17;;;;;;;14.05;12.55;;;9.60;99.90;;;;;;5058082;28;20029;-76
2022/09/23 04:12:43;;;;;;;14.55;13.10;;;9.50;99.90;;;;;;5062559;28;20028;-77
2022/09/23 04:15:09;;;;;;;19.52;14.23;;;9.60;99.90;;;;;;5046020;28;20197;-76
2022/09/23 04:17:35;;;;;;;18.10;13.65;;;9.50;99.90;;;;;;5054496;28;20029;-77
2022/09/23 04:20:01;;;;;;;15.02;13.52;;;9.50;99.90;;;;;;5051574;28;20093;-76
2022/09/23 04:22:27;;;;;;;14.23;12.63;;;9.50;99.90;;;;;;5045917;28;20248;-75
2022/09/23 04:24:53;;;;;;;14.95;12.77;;;9.50;99.90;;;;;;5049857;28;20044;-75
2022/09/23 04:27:18;;;;;;;14.40;12.85;;;9.50;99.90;;;;;;5042504;28;20025;-75
2022/09/23 04:29:44;;;;;;;14.95;13.45;;;9.50;99.90;;;;;;5045552;28;20312;-77
2022/09/23 04:32:10;;;;;;;15.73;14.13;;;9.50;99.90;;;;;;5023155;28;20062;-76
2022/09/23 04:34:36;;;;;;;15.15;13.55;;;9.40;99.90;;;;;;5045353;28;20039;-77
2022/09/23 04:37:01;;;;;;;14.05;12.65;;;9.40;99.90;;;;;;5066295;28;20080;-76
2022/09/23 04:39:27;;;;;;;16.00;14.35;;;9.40;99.90;;;;;;5029068;28;20036;-75
2022/09/23 04:41:53;;;;;;;14.73;13.23;;;9.40;99.90;;;;;;5066661;28;20029;-75
2022/09/23 04:44:20;;;;;;;15.93;14.20;;;9.50;99.90;;;;;;5046714;28;20381;-75
2022/09/23 04:46:46;;;;;;;18.13;13.40;;;9.40;99.90;;;;;;5065315;28;20261;-75
2022/09/23 04:49:13;;;;;;;14.95;13.48;;;9.40;99.90;;;;;;5030325;28;20024;-74
2022/09/23 04:51:42;;;;;;;16.02;14.40;;;9.40;99.90;;;;;;5055117;28;20029;-76
2022/09/23 04:54:20;;;;;;;14.63;13.10;;;9.40;99.90;;;;;;5048190;28;21117;-75
2022/09/23 04:56:46;;;;;;;15.63;14.07;;;9.40;99.90;;;;;;5054787;28;20086;-75
2022/09/23 04:59:14;;;;;;;17.17;14.73;;;9.40;99.90;;;;;;5019786;28;20029;-75
2022/09/23 05:01:40;;;;;;;15.35;13.80;;;9.40;99.90;;;;;;5054802;28;20374;-76
2022/09/23 05:04:08;;;;;;;16.58;13.68;;;9.40;99.90;;;;;;5070161;28;20032;-75
2022/09/23 05:06:35;;;;;;;16.17;14.55;;;9.30;99.90;;;;;;5049868;28;20064;-76
2022/09/23 05:09:37;;;;;;;15.25;13.70;;;9.40;99.90;;;;;;5044076;28;20203;-76
2022/09/23 05:12:03;;;;;;;16.08;14.40;;;9.40;99.90;;;;;;5028645;28;20047;-75
2022/09/23 05:14:37;;;;;;;17.95;14.38;;;9.40;99.90;;;;;;5048861;28;20323;-75
2022/09/23 05:17:06;;;;;;;17.27;14.30;;;9.40;99.90;;;;;;5049139;28;20023;-75
2022/09/23 05:19:32;;;;;;;15.52;13.68;;;9.40;99.90;;;;;;5062759;28;20043;-75
2022/09/23 05:21:57;;;;;;;15.88;14.20;;;9.50;99.90;;;;;;5068254;28;20108;-76
2022/09/23 05:24:25;;;;;;;16.38;14.68;;;10.20;99.90;;;;;;5066568;28;20028;-75
2022/09/23 05:26:50;;;;;;;15.63;13.93;;;9.40;99.90;;;;;;5039196;28;20048;-75
2022/09/23 05:29:16;;;;;;;16.63;14.85;;;9.50;99.90;;;;;;5013047;28;20281;-75
2022/09/23 05:31:42;;;;;;;16.13;14.55;;;9.40;99.90;;;;;;5075736;28;20348;-74
2022/09/23 05:34:08;;;;;;;16.80;15.07;;;9.40;99.90;;;;;;5028185;28;20028;-74
2022/09/23 05:36:35;;;;;;;16.75;14.93;;;9.40;99.90;;;;;;5044172;28;20083;-75
2022/09/23 05:39:02;;;;;;;16.42;14.73;;;9.40;99.90;;;;;;5069517;28;20040;-75
2022/09/23 05:41:27;;;;;;;15.73;14.10;;;9.40;99.90;;;;;;5065371;28;20039;-76
2022/09/23 05:43:55;;;;;;;18.20;13.48;;;9.40;99.90;;;;;;5036204;28;20020;-75
2022/09/23 05:46:59;;;;;;;15.50;13.95;;;9.40;99.90;;;;;;5052706;28;20036;-77
2022/09/23 05:49:51;;;;;;;15.20;13.80;;;9.40;99.90;;;;;;5056644;28;20303;-77
2022/09/23 05:53:29;;;;;;;15.63;14.02;;;9.50;99.90;;;;;;5053267;28;20028;-78
2022/09/23 05:56:46;;;;;;;;;;;;;;;;;;;;;
2022/09/23 05:59:23;;;;;;;16.50;14.80;;;8.70;99.90;;;;;;4989321;28;20105;-77
2022/09/23 06:01:49;;;;;;;16.30;14.70;;;9.50;99.90;;;;;;4976139;28;20030;-76
2022/09/23 06:04:14;;;;;;;16.80;14.63;;;9.60;99.90;;;;;;5039742;28;20039;-76
2022/09/23 06:06:43;;;;;;;14.68;13.18;;;8.90;99.90;;;;;;5041367;28;20024;-74
2022/09/23 06:09:14;;;;;;;15.40;13.82;;;9.60;99.90;;;;;;5057563;28;20086;-74
2022/09/23 06:11:40;;;;;;;14.95;13.35;;;9.70;99.90;;;;;;5048988;28;20095;-74
2022/09/23 06:14:08;;;;;;;15.43;13.75;;;9.80;99.90;;;;;;5068515;28;20035;-75
2022/09/23 06:16:37;;;;;;;14.95;13.20;;;9.70;99.90;;;;;;5065507;28;20048;-74
2022/09/23 06:19:06;;;;;;;20.08;15.43;;;9.70;99.90;;;;;;5063242;28;20031;-75
2022/09/23 06:21:36;;;;;;;19.20;14.38;;;9.90;99.90;;;;;;5071952;28;20218;-75
2022/09/23 06:24:02;;;;;;;15.70;14.20;;;10.00;99.90;;;;;;5084687;28;20035;-75
2022/09/23 06:26:32;;;;;;;16.00;14.25;;;10.10;99.90;;;;;;5068350;28;20024;-75
2022/09/23 06:29:00;;;;;;;14.93;13.35;;;10.10;99.90;;;;;;5067897;28;20330;-74
2022/09/23 06:31:25;;;;;;;17.25;13.65;;;10.10;99.90;;;;;;5066472;28;20044;-75
2022/09/23 06:33:52;;;;;;;14.10;12.48;;;10.30;99.90;;;;;;5047917;28;20078;-75
2022/09/23 06:36:18;;;;;;;13.20;11.85;;;10.20;99.90;;;;;;5047709;28;20052;-74
2022/09/23 06:38:44;;;;;;;14.25;12.75;;;10.20;99.90;;;;;;5030349;28;20055;-75
2022/09/23 06:41:11;;;;;;;14.18;12.73;;;10.20;99.90;;;;;;5032893;28;20024;-73
2022/09/23 06:43:36;;;;;;;13.80;12.43;;;10.10;99.90;;;;;;5084665;28;20060;-73
2022/09/23 06:46:04;;;;;;;16.38;13.27;;;10.10;99.90;;;;;;5082307;28;20020;-76
2022/09/23 06:48:34;;;;;;;14.75;13.13;;;10.20;99.90;;;;;;5046780;28;20036;-74
2022/09/23 06:51:01;;;;;;;15.85;14.23;;;10.10;99.90;;;;;;5070275;28;20036;-74
2022/09/23 06:53:30;;;;;;;16.15;14.10;;;10.20;99.90;;;;;;5064304;28;20206;-75
2022/09/23 06:56:01;;;;;;;12.98;11.57;;;10.30;99.90;;;;;;5061884;28;20028;-81
2022/09/23 06:58:28;;;;;;;16.25;14.55;;;10.30;99.90;;;;;;5047602;28;20040;-77
2022/09/23 07:01:10;;;;;;;16.90;14.50;;;10.40;99.90;;;;;;5050589;28;20032;-75
2022/09/23 07:03:37;;;;;;;16.13;13.93;;;10.50;99.90;;;;;;5047595;28;20430;-76
2022/09/23 07:06:12;;;;;;;15.48;13.90;;;10.60;99.90;;;;;;5063229;28;20036;-76
2022/09/23 07:08:45;;;;;;;13.25;11.93;;;10.60;99.90;;;;;;5045771;28;20052;-77
2022/09/23 07:11:12;;;;;;;14.50;12.88;;;10.60;99.90;;;;;;5049858;28;20094;-76
2022/09/23 07:13:38;;;;;;;15.25;12.85;;;10.70;99.90;;;;;;5063929;28;20096;-77
2022/09/23 07:16:04;;;;;;;18.08;13.93;;;10.70;99.90;;;;;;5046829;28;20040;-78
2022/09/23 07:18:32;;;;;;;16.48;13.88;;;10.80;99.90;;;;;;5027869;28;20080;-78
2022/09/23 07:21:15;;;;;;;14.55;13.07;;;10.90;99.90;;;;;;5064202;28;21548;-78
2022/09/23 07:23:49;;;;;;;14.73;13.00;;;10.90;99.90;;;;;;5081035;28;20040;-78
2022/09/23 07:26:16;;;;;;;14.50;12.30;;;10.90;99.90;;;;;;5078051;28;20275;-77
2022/09/23 07:28:44;;;;;;;16.38;14.25;;;11.00;99.90;;;;;;5060915;28;20340;-77
2022/09/23 07:31:16;;;;;;;15.07;13.57;;;11.00;99.90;;;;;;5044155;28;20040;-83
2022/09/23 07:33:42;;;;;;;16.20;14.35;;;11.00;99.90;;;;;;5065132;28;20293;-79
2022/09/23 07:36:16;;;;;;;15.02;13.52;;;11.00;99.90;;;;;;5020562;28;20053;-78
2022/09/23 07:38:43;;;;;;;15.95;12.95;;;11.00;99.90;;;;;;5032235;28;20082;-79
2022/09/23 07:41:11;;;;;;;15.75;13.85;;;11.10;99.90;;;;;;5025755;28;20033;-78
2022/09/23 07:43:39;;;;;;;15.85;14.25;;;11.20;99.90;;;;;;5024193;28;20296;-77
2022/09/23 07:46:09;;;;;;;15.23;13.82;;;11.20;99.90;;;;;;5022123;28;20040;-77
2022/09/23 07:48:36;;;;;;;15.15;13.73;;;11.30;99.90;;;;;;5022521;28;20263;-78
2022/09/23 07:51:07;;;;;;;15.82;12.95;;;11.30;99.90;;;;;;5022487;28;20219;-77
2022/09/23 07:53:33;;;;;;;15.48;13.88;;;11.30;99.90;;;;;;5006729;28;20450;-77
2022/09/23 07:56:03;;;;;;;15.30;13.30;;;11.40;99.90;;;;;;5018096;28;20033;-77
2022/09/23 07:58:32;;;;;;;13.68;12.30;;;11.50;99.90;;;;;;5025639;28;20029;-78
2022/09/23 08:01:03;;;;;;;15.65;13.32;;;11.50;99.90;;;;;;5005425;28;20097;-77
2022/09/23 08:03:29;;;;;;;17.48;12.73;;;11.50;99.90;;;;;;5025748;28;20301;-78
2022/09/23 08:06:06;;;;;;;14.50;13.05;;;11.60;99.90;;;;;;5025631;28;20044;-79
2022/09/23 08:08:31;;;;;;;15.35;12.80;;;11.80;99.90;;;;;;5025490;28;20033;-79
2022/09/23 08:11:05;;;;;;;15.43;13.05;;;11.80;99.90;;;;;;5024989;28;20040;-79
2022/09/23 08:13:32;;;;;;;14.90;13.23;;;11.80;99.90;;;;;;5022196;28;20037;-78
2022/09/23 08:15:57;;;;;;;16.52;12.38;;;11.90;99.90;;;;;;5043828;28;20052;-79
2022/09/23 08:18:24;;;;;;;13.52;11.73;;;12.00;99.90;;;;;;5055034;28;20040;-75
2022/09/23 08:20:50;;;;;;;14.00;12.57;;;12.00;99.90;;;;;;5033681;28;20090;-75
2022/09/23 08:23:17;;;;;;;14.55;12.48;;;12.00;99.90;;;;;;5026971;28;20041;-77
2022/09/23 08:25:46;;;;;;;14.80;13.20;;;12.20;99.90;;;;;;5047388;28;20037;-76
2022/09/23 08:28:17;;;;;;;14.38;12.68;;;12.30;99.90;;;;;;5026591;28;20047;-75
2022/09/23 08:30:48;;;;;;;13.77;12.38;;;12.40;99.90;;;;;;5042118;28;20036;-76
2022/09/23 08:33:14;;;;;;;13.50;12.10;;;12.40;99.90;;;;;;5033101;28;20338;-77
2022/09/23 08:37:36;;;;;;;14.63;12.43;;;12.50;99.90;;;;;;5046132;28;20075;-80
2022/09/23 08:39:52;;;;;;;14.00;12.23;;;12.20;99.90;;;;;;4989019;28;20230;-79
2022/09/23 08:42:27;;;;;;;14.50;12.15;;;12.70;99.90;;;;;;5007335;28;20072;-79
2022/09/23 08:45:00;;;;;;;13.43;11.93;;;12.70;99.90;;;;;;5026950;28;20047;-78
2022/09/23 08:47:31;;;;;;;10.77;9.63;;;12.80;99.90;;;;;;5059976;28;20051;-80
2022/09/23 08:50:16;;;;;;;12.80;11.48;;;12.90;99.90;;;;;;5052645;28;20108;-77
2022/09/23 08:52:57;;;;;;;12.70;11.38;;;12.90;99.90;;;;;;5041695;28;20315;-78
2022/09/23 08:55:41;;;;;;;12.32;11.10;;;12.90;99.90;;;;;;5058492;28;20192;-78
2022/09/23 08:58:20;;;;;;;10.30;9.25;;;13.20;99.90;;;;;;5037348;28;20411;-78
2022/09/23 09:01:05;;;;;;;11.38;10.27;;;13.20;99.90;;;;;;5027434;28;20021;-77
2022/09/23 09:03:47;;;;;;;12.27;10.95;;;13.40;99.90;;;;;;5059487;28;20078;-78
2022/09/23 09:07:06;;;;;;;11.32;8.52;;;13.50;99.90;;;;;;5054680;28;20055;-76
2022/09/23 09:09:54;;;;;;;12.10;9.90;;;14.10;99.90;;;;;;4955650;29;20034;-77
2022/09/23 09:13:17;;;;;;;11.63;10.43;;;13.60;99.90;;;;;;4950685;29;20118;-76
2022/09/23 09:16:21;;;;;;;10.43;9.40;;;13.60;99.90;;;;;;5016369;28;20040;-75
2022/09/23 09:18:54;;;;;;;12.20;10.20;;;13.70;99.90;;;;;;5028716;28;20044;-75
2022/09/23 09:21:41;;;;;;;12.70;10.57;;;13.70;99.90;;;;;;5037111;28;20036;-75
2022/09/23 09:24:25;;;;;;;10.65;9.45;;;13.70;99.90;;;;;;5027869;28;20036;-75
2022/09/23 09:26:51;;;;;;;11.32;9.48;;;13.90;99.90;;;;;;5033428;28;20068;-75
2022/09/23 09:29:28;;;;;;;15.82;9.90;;;14.00;99.90;;;;;;5048118;28;20079;-74
2022/09/23 09:32:04;;;;;;;11.40;8.80;;;14.00;99.90;;;;;;5015532;28;20033;-75
2022/09/23 09:34:42;;;;;;;10.30;9.07;;;14.00;99.90;;;;;;5045528;28;20046;-76
2022/09/23 09:37:11;;;;;;;10.65;8.30;;;14.00;99.90;;;;;;5066610;28;20101;-75
2022/09/23 09:39:37;;;;;;;10.93;9.20;;;14.00;99.90;;;;;;5100434;28;20117;-75
2022/09/23 09:42:07;;;;;;;11.05;8.88;;;14.00;99.90;;;;;;5067413;28;20024;-75
2022/09/23 09:44:41;;;;;;;10.82;8.13;;;14.10;99.90;;;;;;5076748;28;20036;-81
2022/09/23 09:47:48;;;;;;;10.65;8.55;;;14.20;99.90;;;;;;5101210;28;20063;-76
2022/09/23 09:50:20;;;;;;;10.20;8.35;;;14.10;99.90;;;;;;4984141;28;20283;-76
2022/09/23 09:52:47;;;;;;;9.63;8.70;;;14.20;99.90;;;;;;5056085;28;20371;-76
2022/09/23 09:55:13;;;;;;;11.68;8.15;;;14.30;99.90;;;;;;5080639;28;20038;-77
2022/09/23 09:57:49;;;;;;;10.52;8.20;;;14.40;99.90;;;;;;5082977;28;21327;-77
2022/09/23 10:00:39;;;;;;;10.15;8.23;;;14.50;99.90;;;;;;5096627;28;20585;-75
2022/09/23 10:03:14;;;;;;;8.57;7.68;;;14.40;99.90;;;;;;5087995;28;20036;-78
2022/09/23 10:05:48;;;;;;;11.20;8.20;;;14.40;99.90;;;;;;5082831;28;20959;-77
2022/09/23 10:08:43;;;;;;;10.70;7.72;;;14.40;99.90;;;;;;5065543;28;20039;-88
2022/09/23 10:11:14;;;;;;;10.75;8.55;;;14.50;99.90;;;;;;5088291;28;20166;-76
2022/09/23 10:13:41;;;;;;;9.85;7.95;;;14.40;99.90;;;;;;5080567;28;20039;-77
2022/09/23 10:16:11;;;;;;;8.70;7.70;;;14.40;99.90;;;;;;5066286;28;20036;-77
2022/09/23 10:18:49;;;;;;;10.77;7.72;;;14.50;99.90;;;;;;5087101;28;20254;-79
2022/09/23 10:21:21;;;;;;;8.60;7.70;;;14.50;99.90;;;;;;5083640;28;20118;-78
2022/09/23 10:27:30;;;;;;;11.30;7.63;;;14.50;99.90;;;;;;5073634;28;20122;-78
2022/09/23 10:29:59;;;;;;;8.95;7.65;;;14.60;99.90;;;;;;5082411;28;20538;-80
2022/09/23 10:35:55;;;;;;;9.35;7.75;;;14.60;99.90;;;;;;5059162;28;20047;-80
2022/09/23 10:38:22;;;;;;;9.55;8.20;;;14.80;99.90;;;;;;5068184;28;20048;-76
2022/09/23 10:46:47;;;;;;;8.32;7.38;;;14.70;99.90;;;;;;5080380;28;20081;-75
2022/09/23 10:49:43;;;;;;;8.82;7.25;;;14.80;99.90;;;;;;5082961;28;20107;-78
2022/09/23 10:52:15;;;;;;;7.45;6.75;;;14.80;99.90;;;;;;5069549;28;20043;-75
2022/09/23 10:55:08;;;;;;;8.88;7.97;;;14.80;99.90;;;;;;5069563;28;20040;-75
2022/09/23 10:58:11;;;;;;;8.75;7.30;;;14.80;99.90;;;;;;5065594;28;20154;-75
2022/09/23 11:01:14;;;;;;;8.98;7.55;;;14.90;99.90;;;;;;5085882;28;20111;-75
2022/09/23 11:03:40;;;;;;;8.90;7.32;;;14.90;99.90;;;;;;5093147;28;20036;-74
2022/09/23 11:06:24;;;;;;;8.73;6.88;;;15.10;99.90;;;;;;5086277;28;20039;-74
2022/09/23 11:09:09;;;;;;;9.47;7.37;;;15.20;99.90;;;;;;5084838;28;20039;-75
2022/09/23 11:12:00;;;;;;;8.13;6.88;;;15.30;99.90;;;;;;5072213;28;20063;-75
2022/09/23 11:14:58;;;;;;;7.93;6.80;;;15.40;99.90;;;;;;5083805;28;20095;-76
2022/09/23 11:17:29;;;;;;;9.43;7.53;;;15.20;99.90;;;;;;5067627;28;20039;-76
2022/09/23 11:20:08;;;;;;;10.27;7.93;;;15.40;99.90;;;;;;5071340;28;20028;-76
2022/09/23 11:23:12;;;;;;;8.45;7.40;;;15.40;99.90;;;;;;5071262;28;20226;-77
2022/09/23 11:34:21;;;;;;;9.13;7.40;;;15.80;99.90;;;;;;4940284;29;20147;-78
2022/09/23 11:37:14;;;;;;;9.80;7.20;;;15.00;99.90;;;;;;4956541;28;20145;-78
2022/09/23 11:40:02;;;;;;;9.48;7.35;;;15.90;99.90;;;;;;4970072;28;20126;-78
2022/09/23 11:42:37;;;;;;;8.38;7.07;;;15.90;99.90;;;;;;4983677;28;20049;-77
2022/09/23 11:45:17;;;;;;;8.88;7.97;;;15.90;99.90;;;;;;5039994;28;20048;-78
2022/09/23 11:47:51;;;;;;;10.73;8.55;;;15.70;99.90;;;;;;5062940;28;20050;-78
2022/09/23 11:50:35;;;;;;;10.30;8.20;;;15.80;99.90;;;;;;5064029;28;20067;-77
2022/09/23 11:53:11;;;;;;;8.98;7.63;;;15.70;99.90;;;;;;5098363;28;20039;-78
2022/09/23 11:55:47;;;;;;;8.15;7.35;;;15.70;99.90;;;;;;5064408;28;20107;-77
2022/09/23 11:58:19;;;;;;;10.82;8.25;;;15.80;99.90;;;;;;5062050;28;20094;-77
2022/09/23 12:00:56;;;;;;;8.02;6.72;;;15.70;99.90;;;;;;5063734;28;20056;-77
2022/09/23 12:04:02;;;;;;;9.43;8.45;;;15.60;99.90;;;;;;5082710;28;20331;-77
2022/09/23 12:06:48;;;;;;;;;;;15.70;99.90;;;;;;5025310;28;20103;-80
2022/09/23 12:09:45;;;;;;;8.52;7.72;;;15.70;99.90;;;;;;5081385;28;19923;-79
2022/09/23 12:12:41;;;;;;;10.25;8.05;;;15.70;99.90;;;;;;5080773;28;20069;-76
2022/09/23 12:15:15;;;;;;;10.10;8.55;;;15.60;99.90;;;;;;5065778;28;20052;-77
2022/09/23 12:17:53;;;;;;;9.15;7.95;;;15.60;99.90;;;;;;5094609;28;20482;-77
2022/09/23 12:20:22;;;;;;;8.68;7.82;;;15.70;99.90;;;;;;5050702;28;20085;-77
2022/09/23 12:23:17;;;;;;;12.30;8.38;;;15.60;99.90;;;;;;5075928;28;20326;-75
2022/09/23 12:26:03;;;;;;;11.00;7.80;;;15.70;99.90;;;;;;5045429;28;20055;-76
2022/09/23 12:28:43;;;;;;;11.95;8.18;;;15.80;99.90;;;;;;5078222;28;20024;-76
2022/09/23 12:31:30;;;;;;;9.73;8.38;;;15.80;99.90;;;;;;5084807;28;20044;-76
2022/09/23 12:34:00;;;;;;;10.48;8.30;;;15.80;99.90;;;;;;5069491;28;20031;-76
2022/09/23 12:37:14;;;;;;;11.02;8.75;;;15.80;99.90;;;;;;5086301;28;20039;-77
2022/09/23 12:40:39;;;;;;;;;;;;;;;;;;;;;
2022/09/23 12:43:55;;;;;;;11.02;7.75;;;16.00;99.90;;;;;;4997207;28;20052;-77
2022/09/23 12:47:12;;;;;;;9.98;7.60;;;16.10;99.90;;;;;;4961764;28;20319;-76
2022/09/23 12:50:21;;;;;;;9.48;7.70;;;16.10;99.90;;;;;;4976924;28;20042;-77
2022/09/23 12:54:06;;;;;;;10.63;7.70;;;16.20;99.90;;;;;;5020702;28;20085;-77
2022/09/23 12:56:38;;;;;;;8.52;7.63;;;16.30;99.90;;;;;;5055558;28;20040;-77
2022/09/23 12:59:24;;;;;;;10.23;8.05;;;16.90;99.90;;;;;;5072688;28;20256;-81
2022/09/23 13:01:53;;;;;;;9.50;8.52;;;16.50;99.90;;;;;;5072410;28;20071;-78
2022/09/23 13:07:44;;;;;;;12.23;8.23;;;16.50;99.90;;;;;;5084358;28;20044;-78
2022/09/23 13:10:36;;;;;;;11.48;9.18;;;16.50;99.90;;;;;;5073723;28;20059;-77
2022/09/23 13:21:00;;;;;;;12.63;8.55;;;16.50;99.90;;;;;;4890827;29;20379;-78
2022/09/23 13:23:45;;;;;;;10.70;8.52;;;16.60;99.90;;;;;;4988392;28;20034;-78
2022/09/23 13:26:14;;;;;;;8.98;8.07;;;17.10;99.90;;;;;;4994828;28;20038;-77
2022/09/23 13:28:55;;;;;;;10.40;8.50;;;16.50;99.90;;;;;;5047388;28;20092;-78
2022/09/23 13:31:21;;;;;;;11.20;7.93;;;16.50;99.90;;;;;;5075853;28;20338;-77
2022/09/23 13:34:22;;;;;;;10.77;9.02;;;16.60;99.90;;;;;;5063277;28;20036;-76
2022/09/23 13:41:30;;;;;;;11.90;8.13;;;16.30;99.90;;;;;;4972052;28;20050;-77
2022/09/23 13:44:10;;;;;;;12.15;8.65;;;16.60;99.90;;;;;;4982935;28;20299;-78
2022/09/23 13:46:50;;;;;;;11.63;9.52;;;16.20;99.90;;;;;;5026804;28;20080;-76
2022/09/23 13:49:31;;;;;;;12.48;9.35;;;16.40;99.90;;;;;;5042460;28;20043;-77
2022/09/23 13:51:57;;;;;;;10.38;9.15;;;16.40;99.90;;;;;;5032900;28;20374;-77
2022/09/23 13:54:36;;;;;;;10.23;8.43;;;16.30;99.90;;;;;;5040177;28;20033;-77
2022/09/23 13:57:02;;;;;;;14.63;9.63;;;16.40;99.90;;;;;;5031966;28;20044;-77
2022/09/23 13:59:40;;;;;;;10.80;9.13;;;16.30;99.90;;;;;;5042248;28;20212;-77
2022/09/23 14:02:15;;;;;;;11.32;8.90;;;16.30;99.90;;;;;;5015363;28;20330;-77
2022/09/23 14:04:41;;;;;;;10.45;8.95;;;16.30;99.90;;;;;;5028859;28;20028;-77
2022/09/23 14:07:15;;;;;;;11.10;8.43;;;16.20;99.90;;;;;;5038174;28;20122;-77
2022/09/23 14:09:44;;;;;;;12.73;8.98;;;16.20;99.90;;;;;;5021320;28;20041;-77